Time;durP1;ratioP1;P1;durP2;ratioP2;P2;SDS_P1;SDS_P2;PMS_P1;PMS_P2;Temp;Humidity;BMP_temperature;BMP_pressure;BME280_temperature;BME280_humidity;BME280_pressure;Samples;Min_cycle;Max_cycle;Signal;HPM_P1;HPM_P2
2023/03/08 00:01:21;;;;;;;32.50;20.90;;;;;;;0.12;100.00;99936.22;5036820;28;20504;-57
2023/03/08 00:03:51;;;;;;;31.43;20.67;;;;;;;0.12;100.00;99942.28;5029089;28;20053;-56
2023/03/08 00:06:17;;;;;;;30.47;21.07;;;;;;;0.15;100.00;99945.59;5040649;28;20848;-57
2023/03/08 00:08:42;;;;;;;29.77;21.07;;;;;;;0.11;100.00;99935.38;5027595;28;20061;-56
2023/03/08 00:11:09;;;;;;;32.73;21.30;;;;;;;0.09;100.00;99937.28;5030944;28;20104;-57
2023/03/08 00:13:35;;;;;;;33.93;21.30;;;;;;;0.11;100.00;99945.81;5017434;28;20136;-56
2023/03/08 00:16:02;;;;;;;33.13;21.03;;;;;;;0.11;100.00;99934.56;5016247;28;20061;-56
2023/03/08 00:18:27;;;;;;;33.47;22.30;;;;;;;0.12;100.00;99939.66;5021863;28;20033;-57
2023/03/08 00:21:00;;;;;;;31.40;21.80;;;;;;;0.12;100.00;99937.06;5031678;28;20044;-54
2023/03/08 00:23:26;;;;;;;32.70;21.80;;;;;;;0.12;100.00;99942.28;5021765;28;20053;-56
2023/03/08 00:25:52;;;;;;;34.00;21.93;;;;;;;0.12;100.00;99947.50;5027240;28;20056;-55
2023/03/08 00:28:17;;;;;;;33.33;22.20;;;;;;;0.13;100.00;99943.94;5028441;28;20044;-56
2023/03/08 00:30:42;;;;;;;33.37;21.63;;;;;;;0.13;100.00;99943.94;5026228;28;20041;-57
2023/03/08 00:33:07;;;;;;;32.17;21.63;;;;;;;0.12;100.00;99942.28;5042724;28;20033;-58
2023/03/08 00:35:33;;;;;;;33.03;22.30;;;;;;;0.12;100.00;99937.06;5025196;28;20033;-56
2023/03/08 00:37:58;;;;;;;36.33;22.77;;;;;;;0.12;100.00;99950.09;5033318;28;20032;-57
2023/03/08 00:40:23;;;;;;;34.30;22.13;;;;;;;0.12;100.00;99941.44;5024228;28;20034;-57
2023/03/08 00:42:48;;;;;;;33.13;22.20;;;;;;;0.12;100.00;99942.28;5022588;28;20572;-58
2023/03/08 00:45:14;;;;;;;33.70;22.73;;;;;;;0.12;100.00;99937.06;5027536;28;20373;-57
2023/03/08 00:47:39;;;;;;;34.27;23.23;;;;;;;0.10;100.00;99936.31;5020270;28;20082;-57
2023/03/08 00:50:05;;;;;;;33.77;22.47;;;;;;;0.11;100.00;99937.97;5039218;28;20378;-57
2023/03/08 00:52:30;;;;;;;35.97;24.07;;;;;;;0.12;100.00;99931.84;5030327;28;20400;-57
2023/03/08 00:54:56;;;;;;;35.33;23.13;;;;;;;0.15;100.00;99929.94;5021197;28;20049;-57
2023/03/08 00:57:21;;;;;;;35.37;23.30;;;;;;;0.13;100.00;99928.28;5037802;28;20052;-57
2023/03/08 00:59:46;;;;;;;34.50;23.80;;;;;;;0.16;100.00;99926.38;5041605;28;20034;-56
2023/03/08 01:02:11;;;;;;;36.43;23.87;;;;;;;0.15;100.00;99924.72;5024043;28;20469;-56
2023/03/08 01:04:37;;;;;;;39.17;25.40;;;;;;;0.16;100.00;99923.78;5028310;28;20046;-57
2023/03/08 01:07:02;;;;;;;40.10;26.20;;;;;;;0.18;100.00;99930.53;5031864;28;20027;-57
2023/03/08 01:09:27;;;;;;;37.53;25.00;;;;;;;0.17;100.00;99921.06;5028826;28;20029;-56
2023/03/08 01:11:53;;;;;;;39.23;25.83;;;;;;;0.19;100.00;99915.75;5023685;28;20041;-56
2023/03/08 01:14:18;;;;;;;40.70;26.17;;;;;;;0.18;100.00;99916.66;5030401;28;20028;-56
2023/03/08 01:16:43;;;;;;;42.00;26.00;;;;;;;0.19;100.00;99905.31;5023446;28;20030;-56
2023/03/08 01:19:09;;;;;;;40.27;26.27;;;;;;;0.20;100.00;99897.34;5014267;28;20040;-54
2023/03/08 01:21:34;;;;;;;41.10;25.83;;;;;;;0.21;100.00;99887.75;5024800;28;20056;-57
2023/03/08 01:23:59;;;;;;;42.43;27.23;;;;;;;0.22;100.00;99892.88;5023446;28;20026;-57
2023/03/08 01:26:26;;;;;;;42.10;27.60;;;;;;;0.23;100.00;99885.84;5031055;28;20053;-57
2023/03/08 01:28:51;;;;;;;45.17;28.50;;;;;;;0.24;100.00;99882.28;5027717;28;20048;-56
2023/03/08 01:31:26;;;;;;;46.93;29.07;;;;;;;0.25;100.00;99878.75;5024698;28;20532;-57
2023/03/08 01:33:52;;;;;;;46.50;28.87;;;;;;;0.25;100.00;99873.53;5025059;28;20027;-57
2023/03/08 01:36:20;;;;;;;48.63;29.57;;;;;;;0.25;100.00;99863.94;5022480;28;20037;-56
2023/03/08 01:38:46;;;;;;;50.73;30.53;;;;;;;0.28;100.00;99868.06;5038585;28;20041;-57
2023/03/08 01:41:21;;;;;;;47.93;29.53;;;;;;;0.28;100.00;99860.25;5028787;28;20041;-57
2023/03/08 01:43:47;;;;;;;51.47;30.53;;;;;;;0.28;100.00;99862.88;5031861;28;20029;-56
2023/03/08 01:46:19;;;;;;;52.00;31.80;;;;;;;0.27;100.00;99853.38;5022141;28;20041;-57
2023/03/08 01:48:53;;;;;;;51.33;30.70;;;;;;;0.28;100.00;99857.66;5035312;28;20077;-56
2023/03/08 01:51:29;;;;;;;52.50;31.63;;;;;;;0.30;100.00;99847.09;5026776;28;20657;-54
2023/03/08 01:53:56;;;;;;;51.07;30.20;;;;;;;0.28;100.00;99847.22;5026604;28;20044;-56
2023/03/08 01:56:23;;;;;;;51.30;30.80;;;;;;;0.29;100.00;99848.88;5030463;28;20039;-57
2023/03/08 01:58:50;;;;;;;54.17;31.20;;;;;;;0.31;100.00;99846.16;5022654;28;20037;-56
2023/03/08 02:01:17;;;;;;;55.10;32.63;;;;;;;0.29;100.00;99848.88;5029754;28;21676;-56
2023/03/08 02:03:44;;;;;;;53.40;32.07;;;;;;;0.31;100.00;99852.22;5030823;28;20101;-57
2023/03/08 02:06:09;;;;;;;56.40;31.57;;;;;;;0.32;100.00;99843.44;5024450;28;20112;-57
2023/03/08 02:08:35;;;;;;;54.70;31.57;;;;;;;0.32;100.00;99842.59;5036679;28;20112;-58
2023/03/08 02:11:00;;;;;;;57.50;32.37;;;;;;;0.32;100.00;99838.22;5034466;28;20042;-58
2023/03/08 02:13:26;;;;;;;54.87;32.50;;;;;;;0.34;100.00;99825.88;5033418;28;20038;-57
2023/03/08 02:15:54;;;;;;;57.30;32.27;;;;;;;0.35;100.00;99822.31;5029083;28;20042;-57
2023/03/08 02:18:20;;;;;;;54.93;31.37;;;;;;;0.35;100.00;99817.09;5020902;28;20022;-57
2023/03/08 02:20:45;;;;;;;59.37;33.27;;;;;;;0.34;100.00;99809.41;5042366;28;20499;-56
2023/03/08 02:23:17;;;;;;;59.67;33.87;;;;;;;0.35;100.00;99800.63;5031162;28;20044;-56
2023/03/08 02:25:53;;;;;;;60.00;33.37;;;;;;;0.34;100.00;99804.19;5037578;28;20112;-57
2023/03/08 02:28:21;;;;;;;58.87;33.03;;;;;;;0.35;100.00;99798.84;5030927;28;20029;-56
2023/03/08 02:30:47;;;;;;;59.17;32.77;;;;;;;0.36;100.00;99797.91;5022726;28;20103;-56
2023/03/08 02:33:13;;;;;;;58.97;33.97;;;;;;;0.37;100.00;99794.34;5027066;28;20037;-56
2023/03/08 02:35:41;;;;;;;60.50;33.87;;;;;;;0.36;100.00;99797.91;5028491;28;20040;-56
2023/03/08 02:38:07;;;;;;;57.90;32.90;;;;;;;0.35;100.00;99795.41;5029149;28;20037;-57
2023/03/08 02:40:32;;;;;;;60.00;33.13;;;;;;;0.33;100.00;99782.50;5029872;28;20044;-57
2023/03/08 02:42:58;;;;;;;59.07;34.30;;;;;;;0.35;100.00;99791.00;5027741;28;20053;-57
2023/03/08 02:45:23;;;;;;;60.63;33.63;;;;;;;0.35;100.00;99785.78;5025761;28;20041;-58
2023/03/08 02:47:48;;;;;;;59.67;34.47;;;;;;;0.34;100.00;99785.94;5036756;28;20029;-55
2023/03/08 02:50:14;;;;;;;60.80;34.00;;;;;;;0.33;100.00;99785.09;5036552;28;20025;-55
2023/03/08 02:52:39;;;;;;;60.03;32.60;;;;;;;0.33;100.00;99777.28;5031303;28;20036;-54
2023/03/08 02:55:05;;;;;;;59.93;32.67;;;;;;;0.32;100.00;99786.06;5026634;28;20041;-57
2023/03/08 02:57:30;;;;;;;62.07;33.23;;;;;;;0.34;100.00;99780.72;5031439;28;20029;-57
2023/03/08 02:59:56;;;;;;;59.47;32.43;;;;;;;0.36;100.00;99781.41;5019095;28;20033;-59
2023/03/08 03:02:21;;;;;;;55.97;32.10;;;;;;;0.36;100.00;99771.84;5023668;28;20044;-57
2023/03/08 03:04:46;;;;;;;56.90;31.97;;;;;;;0.38;100.00;99774.28;5019478;28;22163;-57
2023/03/08 03:07:13;;;;;;;55.80;31.50;;;;;;;0.37;100.00;99776.09;5026789;28;20057;-57
2023/03/08 03:09:38;;;;;;;54.83;31.33;;;;;;;0.37;100.00;99763.06;5030368;28;21575;-56
2023/03/08 03:12:03;;;;;;;54.90;32.03;;;;;;;0.33;100.00;99751.19;5024317;28;20032;-57
2023/03/08 03:14:29;;;;;;;54.33;31.40;;;;;;;0.34;100.00;99741.59;5038986;28;20099;-57
2023/03/08 03:16:54;;;;;;;54.27;31.40;;;;;;;0.34;100.00;99755.47;5018932;28;20022;-57
2023/03/08 03:19:21;;;;;;;54.30;31.83;;;;;;;0.35;100.00;99743.25;5025816;28;20021;-58
2023/03/08 03:21:46;;;;;;;55.00;32.23;;;;;;;0.31;100.00;99747.88;5018548;28;20076;-54
2023/03/08 03:24:12;;;;;;;51.80;31.00;;;;;;;0.32;100.00;99744.31;5029007;28;20030;-57
2023/03/08 03:26:38;;;;;;;56.80;31.70;;;;;;;0.33;100.00;99735.53;5026010;28;20069;-59
2023/03/08 03:29:03;;;;;;;57.23;31.60;;;;;;;0.34;100.00;99731.16;5032378;28;20029;-57
2023/03/08 03:31:28;;;;;;;53.50;30.23;;;;;;;0.34;100.00;99721.56;5021782;28;20033;-56
2023/03/08 03:33:54;;;;;;;57.33;32.83;;;;;;;0.36;100.00;99708.41;5028899;28;20043;-56
2023/03/08 03:36:20;;;;;;;52.67;30.90;;;;;;;0.37;100.00;99703.06;5026951;28;20042;-56
2023/03/08 03:38:47;;;;;;;54.07;31.17;;;;;;;0.37;100.00;99695.25;5032040;28;20040;-56
2023/03/08 03:41:15;;;;;;;53.30;30.80;;;;;;;0.37;100.00;99704.84;5027679;28;20021;-57
2023/03/08 03:43:41;;;;;;;55.13;31.97;;;;;;;0.39;100.00;99703.75;5030345;28;20036;-56
2023/03/08 03:46:10;;;;;;;56.67;31.80;;;;;;;0.40;100.00;99700.19;5035398;28;20163;-56
2023/03/08 03:48:36;;;;;;;53.70;31.80;;;;;;;0.39;100.00;99703.75;5041884;28;20488;-57
2023/03/08 03:51:05;;;;;;;56.80;32.47;;;;;;;0.38;100.00;99696.03;5030621;28;20413;-56
2023/03/08 03:53:33;;;;;;;55.00;31.93;;;;;;;0.43;100.00;99700.91;5026764;28;20046;-57
2023/03/08 03:56:07;;;;;;;54.80;32.90;;;;;;;0.44;100.00;99694.75;5027285;28;20061;-56
2023/03/08 03:58:33;;;;;;;57.87;33.80;;;;;;;0.42;100.00;99686.19;5030019;28;20029;-57
2023/03/08 04:00:59;;;;;;;56.43;33.20;;;;;;;0.36;100.00;99682.31;5028211;28;20033;-58
2023/03/08 04:03:25;;;;;;;56.13;32.60;;;;;;;0.37;100.00;99684.81;5029613;28;20030;-56
2023/03/08 04:05:50;;;;;;;53.53;32.30;;;;;;;0.37;100.00;99674.38;5026372;28;20033;-57
2023/03/08 04:08:15;;;;;;;53.63;31.77;;;;;;;0.36;100.00;99675.34;5029179;28;20030;-56
2023/03/08 04:10:41;;;;;;;52.60;31.57;;;;;;;0.35;100.00;99676.25;5023943;28;20041;-56
2023/03/08 04:13:06;;;;;;;47.80;29.50;;;;;;;0.36;100.00;99671.88;5021798;28;20037;-57
2023/03/08 04:15:31;;;;;;;50.67;30.07;;;;;;;0.33;100.00;99662.53;5025179;28;20484;-56
2023/03/08 04:17:57;;;;;;;46.77;28.73;;;;;;;0.32;100.00;99654.81;5031883;28;20040;-57
2023/03/08 04:20:23;;;;;;;45.53;27.70;;;;;;;0.35;100.00;99654.59;5035429;28;20059;-56
2023/03/08 04:22:48;;;;;;;43.80;26.93;;;;;;;0.34;100.00;99653.75;5034940;28;20021;-56
2023/03/08 04:25:14;;;;;;;44.73;26.37;;;;;;;0.35;100.00;99644.97;5019980;28;20047;-57
2023/03/08 04:27:39;;;;;;;42.73;26.60;;;;;;;0.35;100.00;99639.75;5030062;28;20113;-57
2023/03/08 04:30:05;;;;;;;40.67;25.53;;;;;;;0.35;100.00;99634.53;5019264;28;20103;-56
2023/03/08 04:32:31;;;;;;;40.73;25.43;;;;;;;0.36;100.00;99625.78;5033950;28;20033;-56
2023/03/08 04:34:56;;;;;;;41.70;24.43;;;;;;;0.37;100.00;99627.44;5041443;28;20025;-57
2023/03/08 04:37:23;;;;;;;38.87;24.10;;;;;;;0.36;100.00;99624.94;5021346;28;20742;-55
2023/03/08 04:39:49;;;;;;;37.40;23.83;;;;;;;0.32;100.00;99616.53;5024662;28;20075;-57
2023/03/08 04:42:14;;;;;;;36.90;23.53;;;;;;;0.35;100.00;99618.88;5021658;28;20057;-57
2023/03/08 04:44:39;;;;;;;38.33;23.30;;;;;;;0.32;100.00;99608.72;5024830;28;20083;-57
2023/03/08 04:47:05;;;;;;;36.67;22.93;;;;;;;0.34;100.00;99609.41;5027506;28;20121;-57
2023/03/08 04:49:30;;;;;;;36.13;22.47;;;;;;;0.33;100.00;99615.59;5028298;28;20045;-56
2023/03/08 04:51:55;;;;;;;36.23;21.87;;;;;;;0.34;100.00;99606.81;5026482;28;20531;-56
2023/03/08 04:54:21;;;;;;;35.63;22.03;;;;;;;0.30;100.00;99607.19;5028075;28;20073;-56
2023/03/08 04:56:46;;;;;;;36.40;21.27;;;;;;;0.28;100.00;99590.84;5028137;28;20055;-57
2023/03/08 04:59:11;;;;;;;33.90;21.10;;;;;;;0.26;100.00;99594.38;5033517;28;20033;-57
2023/03/08 05:01:37;;;;;;;34.07;20.27;;;;;;;0.27;100.00;99587.41;5021952;28;20457;-57
2023/03/08 05:04:03;;;;;;;31.77;19.83;;;;;;;0.28;100.00;99573.41;5027162;28;20044;-57
2023/03/08 05:06:28;;;;;;;34.57;20.90;;;;;;;0.25;100.00;99568.44;5027543;28;20084;-56
2023/03/08 05:08:53;;;;;;;34.63;20.17;;;;;;;0.28;100.00;99559.56;5030008;28;20061;-56
2023/03/08 05:11:24;;;;;;;32.57;19.70;;;;;;;0.21;100.00;99549.63;5030005;28;20124;-57
2023/03/08 05:13:52;;;;;;;31.00;19.10;;;;;;;0.27;100.00;99558.72;5025258;28;20026;-56
2023/03/08 05:16:18;;;;;;;33.57;20.43;;;;;;;0.28;100.00;99560.38;5036355;28;20055;-56
2023/03/08 05:18:43;;;;;;;31.37;19.63;;;;;;;0.27;100.00;99556.09;5033471;28;20053;-56
2023/03/08 05:21:11;;;;;;;35.97;20.30;;;;;;;0.25;100.00;99548.41;5033379;28;20029;-56
2023/03/08 05:23:36;;;;;;;30.60;19.17;;;;;;;0.26;100.00;99551.84;5027256;28;20062;-56
2023/03/08 05:26:04;;;;;;;32.33;19.37;;;;;;;0.22;100.00;99540.84;5033397;28;20060;-56
2023/03/08 05:28:31;;;;;;;31.23;18.83;;;;;;;0.16;100.00;99525.72;5036277;28;20029;-56
2023/03/08 05:31:04;;;;;;;30.33;18.40;;;;;;;0.22;100.00;99530.41;5037703;28;20041;-57
2023/03/08 05:33:30;;;;;;;30.98;18.00;;;;;;;0.24;100.00;99525.06;5033216;28;20484;-57
2023/03/08 05:35:56;;;;;;;32.67;18.97;;;;;;;0.18;100.00;99523.78;5021782;28;20061;-57
2023/03/08 05:38:22;;;;;;;27.60;18.03;;;;;;;0.17;100.00;99521.31;5033261;28;20041;-57
2023/03/08 05:40:48;;;;;;;31.30;18.43;;;;;;;0.14;100.00;99506.75;5034171;28;20138;-57
2023/03/08 05:43:14;;;;;;;32.20;18.47;;;;;;;0.16;100.00;99498.81;5035734;28;20045;-57
2023/03/08 05:45:39;;;;;;;31.17;17.53;;;;;;;0.15;100.00;99494.53;5036272;28;20128;-56
2023/03/08 05:48:04;;;;;;;28.17;16.50;;;;;;;0.15;100.00;99497.16;5037606;28;20789;-56
2023/03/08 05:50:30;;;;;;;27.53;16.10;;;;;;;0.11;100.00;99486.97;5025541;28;20428;-57
2023/03/08 05:52:55;;;;;;;25.73;13.83;;;;;;;0.09;100.00;99483.66;5033155;28;20027;-57
2023/03/08 05:55:20;;;;;;;23.23;13.77;;;;;;;0.07;100.00;99479.53;5027517;28;20021;-57
2023/03/08 05:57:46;;;;;;;21.37;12.30;;;;;;;0.08;100.00;99475.97;5030635;28;20032;-57
2023/03/08 06:00:11;;;;;;;21.53;12.23;;;;;;;0.02;100.00;99466.88;5033103;28;20026;-56
2023/03/08 06:02:37;;;;;;;20.33;11.20;;;;;;;0.01;100.00;99462.63;5032066;28;20041;-57
2023/03/08 06:05:02;;;;;;;21.17;10.87;;;;;;;-0.03;100.00;99464.66;5028303;28;20041;-56
2023/03/08 06:07:28;;;;;;;22.00;11.30;;;;;;;-0.03;100.00;99458.63;5030230;28;20509;-55
2023/03/08 06:09:54;;;;;;;21.83;11.70;;;;;;;-0.04;100.00;99467.41;5033379;28;20033;-57
2023/03/08 06:12:19;;;;;;;20.67;11.23;;;;;;;-0.08;100.00;99463.38;5028499;28;20052;-56
2023/03/08 06:14:45;;;;;;;20.80;11.00;;;;;;;-0.09;100.00;99464.34;5026419;28;20037;-57
2023/03/08 06:17:10;;;;;;;21.90;11.47;;;;;;;-0.15;100.00;99461.28;5031311;28;20029;-57
2023/03/08 06:19:35;;;;;;;19.83;11.13;;;;;;;-0.18;100.00;99456.34;5032230;28;20033;-56
2023/03/08 06:22:00;;;;;;;19.27;10.40;;;;;;;-0.18;100.00;99460.72;5021203;28;20041;-57
2023/03/08 06:24:26;;;;;;;20.30;10.40;;;;;;;-0.20;100.00;99463.44;5022022;28;20037;-56
2023/03/08 06:26:53;;;;;;;20.23;9.97;;;;;;;-0.24;100.00;99459.44;5022585;28;20029;-57
2023/03/08 06:29:18;;;;;;;21.30;9.87;;;;;;;-0.28;100.00;99455.44;5023793;28;20068;-57
2023/03/08 06:31:44;;;;;;;18.63;10.00;;;;;;;-0.28;100.00;99450.22;5028763;28;20025;-53
2023/03/08 06:34:10;;;;;;;18.23;9.93;;;;;;;-0.32;100.00;99449.66;5044685;28;20029;-56
2023/03/08 06:36:36;;;;;;;18.93;9.57;;;;;;;-0.35;100.00;99439.47;5042538;28;20441;-57
2023/03/08 06:39:02;;;;;;;16.00;8.37;;;;;;;-0.35;100.00;99443.88;5023863;28;20110;-57
2023/03/08 06:41:29;;;;;;;18.80;8.40;;;;;;;-0.36;100.00;99444.78;5027966;28;20037;-57
2023/03/08 06:43:54;;;;;;;16.13;8.03;;;;;;;-0.36;100.00;99440.41;5022994;28;20025;-56
2023/03/08 06:46:19;;;;;;;16.60;8.13;;;;;;;-0.36;100.00;99436.97;5020666;28;20041;-57
2023/03/08 06:48:46;;;;;;;12.10;6.60;;;;;;;-0.36;100.00;99439.56;5023681;28;20041;-57
2023/03/08 06:51:11;;;;;;;12.87;6.83;;;;;;;-0.37;100.00;99440.53;5029755;28;20529;-56
2023/03/08 06:53:39;;;;;;;14.47;7.27;;;;;;;-0.41;100.00;99448.63;5025449;28;20124;-56
2023/03/08 06:56:07;;;;;;;14.23;7.07;;;;;;;-0.43;100.00;99452.28;5025500;28;20037;-59
2023/03/08 06:58:34;;;;;;;13.27;7.07;;;;;;;-0.45;100.00;99447.19;5020267;28;20125;-57
2023/03/08 07:00:59;;;;;;;12.70;6.73;;;;;;;-0.48;100.00;99449.22;5024511;28;20433;-57
2023/03/08 07:03:26;;;;;;;15.23;6.93;;;;;;;-0.48;100.00;99444.03;5025880;28;20114;-56
2023/03/08 07:05:56;;;;;;;11.90;6.67;;;;;;;-0.53;100.00;99444.41;5027843;28;20109;-56
2023/03/08 07:08:22;;;;;;;12.50;6.60;;;;;;;-0.52;100.00;99438.25;5024301;28;20040;-57
2023/03/08 07:10:47;;;;;;;12.87;7.03;;;;;;;-0.53;100.00;99433.97;5021432;28;20038;-56
2023/03/08 07:13:12;;;;;;;12.93;7.33;;;;;;;-0.54;100.00;99429.72;5025284;28;20033;-57
2023/03/08 07:15:39;;;;;;;15.77;8.07;;;;;;;-0.57;100.00;99424.75;5025442;28;20033;-55
2023/03/08 07:18:04;;;;;;;13.27;7.60;;;;;;;-0.59;100.00;99424.06;5024949;28;20025;-59
2023/03/08 07:20:29;;;;;;;12.90;6.93;;;;;;;-0.58;100.00;99417.91;5022185;28;20111;-57
2023/03/08 07:22:55;;;;;;;12.70;6.97;;;;;;;-0.60;100.00;99425.03;5027923;28;20045;-56
2023/03/08 07:25:21;;;;;;;11.07;6.03;;;;;;;-0.62;100.00;99422.53;5025656;28;20427;-58
2023/03/08 07:27:46;;;;;;;12.67;6.23;;;;;;;-0.62;100.00;99412.13;5019706;28;20038;-56
2023/03/08 07:30:13;;;;;;;11.20;5.90;;;;;;;-0.61;100.00;99408.56;5023372;28;20041;-59
2023/03/08 07:32:43;;;;;;;11.37;5.93;;;;;;;-0.64;100.00;99402.78;5020080;28;20017;-56
2023/03/08 07:35:11;;;;;;;12.00;5.70;;;;;;;-0.63;100.00;99399.22;5020198;28;20026;-57
2023/03/08 07:37:36;;;;;;;10.23;5.80;;;;;;;-0.62;100.00;99395.66;5025315;28;20037;-57
2023/03/08 07:40:03;;;;;;;9.47;5.60;;;;;;;-0.63;100.00;99396.63;5026652;28;20026;-57
2023/03/08 07:42:29;;;;;;;8.77;5.17;;;;;;;-0.64;100.00;99397.56;5022345;28;20021;-57
2023/03/08 07:44:54;;;;;;;10.53;5.00;;;;;;;-0.65;100.00;99391.53;5024799;28;20029;-58
2023/03/08 07:47:20;;;;;;;9.53;5.17;;;;;;;-0.64;100.00;99392.38;5025581;28;20477;-57
2023/03/08 07:49:46;;;;;;;11.57;5.80;;;;;;;-0.64;100.00;99387.16;5027273;28;20052;-57
2023/03/08 07:52:12;;;;;;;9.80;5.70;;;;;;;-0.60;100.00;99388.56;5024105;28;20021;-56
2023/03/08 07:54:37;;;;;;;9.67;5.50;;;;;;;-0.62;100.00;99382.63;5023346;28;20548;-57
2023/03/08 07:57:03;;;;;;;10.67;6.13;;;;;;;-0.65;100.00;99385.50;5024010;28;20036;-56
2023/03/08 07:59:28;;;;;;;11.30;6.20;;;;;;;-0.61;100.00;99376.47;5019907;28;20033;-56
2023/03/08 08:01:53;;;;;;;11.97;7.00;;;;;;;-0.64;100.00;99371.53;5029090;28;20088;-57
2023/03/08 08:04:21;;;;;;;10.33;6.37;;;;;;;-0.63;100.00;99367.97;5021041;28;20389;-57
2023/03/08 08:06:46;;;;;;;12.30;6.93;;;;;;;-0.64;100.00;99366.31;5022353;28;20038;-56
2023/03/08 08:09:13;;;;;;;12.13;6.90;;;;;;;-0.62;100.00;99369.63;5026103;28;20440;-58
2023/03/08 08:11:38;;;;;;;14.30;7.80;;;;;;;-0.62;100.00;99375.66;5022428;28;20469;-57
2023/03/08 08:14:04;;;;;;;15.50;8.27;;;;;;;-0.57;100.00;99367.47;5022218;28;20029;-57
2023/03/08 08:16:30;;;;;;;13.87;8.43;;;;;;;-0.57;100.00;99360.50;5024221;28;20025;-56
2023/03/08 08:18:55;;;;;;;14.33;8.50;;;;;;;-0.57;100.00;99363.09;5025123;28;20042;-57
2023/03/08 08:21:21;;;;;;;18.30;9.97;;;;;;;-0.53;100.00;99353.25;5022100;28;20120;-58
2023/03/08 08:23:46;;;;;;;17.07;9.40;;;;;;;-0.51;100.00;99346.13;5016634;28;20488;-56
2023/03/08 08:26:16;;;;;;;18.63;10.23;;;;;;;-0.51;100.00;99340.91;5028195;28;20384;-57
2023/03/08 08:28:43;;;;;;;16.90;9.93;;;;;;;-0.53;100.00;99328.97;5021255;28;20124;-57
2023/03/08 08:31:12;;;;;;;19.20;11.17;;;;;;;-0.53;100.00;99335.03;5042264;28;20033;-57
2023/03/08 08:33:37;;;;;;;16.47;9.20;;;;;;;-0.53;100.00;99329.81;5029489;28;20040;-57
2023/03/08 08:36:05;;;;;;;15.90;9.53;;;;;;;-0.57;100.00;99325.81;5031744;28;20033;-57
2023/03/08 08:38:31;;;;;;;16.43;9.07;;;;;;;-0.55;100.00;99318.69;5030551;28;20025;-57
2023/03/08 08:41:01;;;;;;;15.20;9.17;;;;;;;-0.54;100.00;99312.56;5031423;28;20109;-57
2023/03/08 08:43:26;;;;;;;13.83;8.20;;;;;;;-0.58;100.00;99308.53;5029200;28;20025;-57
2023/03/08 08:45:54;;;;;;;13.23;8.10;;;;;;;-0.58;100.00;99308.53;5026107;28;20411;-57
2023/03/08 08:48:21;;;;;;;13.67;8.10;;;;;;;-0.53;100.00;99322.00;5037826;28;20054;-57
2023/03/08 08:50:46;;;;;;;14.37;8.67;;;;;;;-0.55;100.00;99313.47;5037909;28;20045;-57
2023/03/08 08:53:11;;;;;;;15.83;8.87;;;;;;;-0.46;100.00;99325.75;5033486;28;20037;-57
2023/03/08 08:55:37;;;;;;;15.00;9.43;;;;;;;-0.52;100.00;99328.03;5033791;28;20037;-57
2023/03/08 08:58:03;;;;;;;13.23;8.13;;;;;;;-0.50;100.00;99337.38;5029205;28;20484;-57
2023/03/08 09:00:30;;;;;;;13.00;7.97;;;;;;;-0.44;100.00;99347.28;5031830;28;20029;-57
2023/03/08 09:02:55;;;;;;;13.27;7.60;;;;;;;-0.39;100.00;99348.69;5021069;28;20118;-57
2023/03/08 09:05:20;;;;;;;13.00;7.80;;;;;;;-0.44;100.00;99349.88;5041680;28;20041;-57
2023/03/08 09:07:46;;;;;;;11.37;7.63;;;;;;;-0.42;100.00;99350.59;5025432;28;20092;-56
2023/03/08 09:10:11;;;;;;;14.77;8.00;;;;;;;-0.44;100.00;99347.28;5019401;28;20104;-58
2023/03/08 09:12:37;;;;;;;15.47;9.03;;;;;;;-0.41;100.00;99334.00;5026781;28;20064;-57
2023/03/08 09:15:03;;;;;;;15.40;8.97;;;;;;;-0.44;100.00;99323.03;5034795;28;20087;-58
2023/03/08 09:17:29;;;;;;;15.23;9.33;;;;;;;-0.44;100.00;99308.19;5035434;28;20108;-55
2023/03/08 09:19:54;;;;;;;13.47;8.27;;;;;;;-0.46;100.00;99281.47;5022227;28;20108;-57
2023/03/08 09:22:20;;;;;;;14.80;8.60;;;;;;;-0.45;100.00;99275.31;5027211;28;20668;-57
2023/03/08 09:24:47;;;;;;;13.57;8.37;;;;;;;-0.45;100.00;99285.72;5031871;28;20111;-56
2023/03/08 09:27:13;;;;;;;14.53;8.13;;;;;;;-0.43;100.00;99280.41;5031054;28;20449;-57
2023/03/08 09:29:38;;;;;;;14.47;9.13;;;;;;;-0.38;100.00;99277.41;5034821;28;20132;-56
2023/03/08 09:32:04;;;;;;;13.50;8.80;;;;;;;-0.36;100.00;99265.06;5032124;28;20024;-56
2023/03/08 09:34:30;;;;;;;14.07;9.07;;;;;;;-0.33;100.00;99264.81;5041067;28;20029;-56
2023/03/08 09:36:56;;;;;;;13.47;8.73;;;;;;;-0.33;100.00;99264.81;5036666;28;20164;-58
2023/03/08 09:39:21;;;;;;;13.97;8.47;;;;;;;-0.23;100.00;99270.06;5030663;28;20097;-57
2023/03/08 09:41:56;;;;;;;13.57;8.60;;;;;;;-0.29;100.00;99256.59;5044337;28;20037;-57
2023/03/08 09:44:46;;;;;;;14.87;8.23;;;;;;;-0.15;100.00;99255.44;5028285;28;20457;-56
2023/03/08 09:47:24;;;;;;;12.47;7.80;;;;;;;-0.19;100.00;99251.41;5026985;28;20432;-58
2023/03/08 09:49:53;;;;;;;13.20;8.07;;;;;;;-0.11;100.00;99252.56;5027327;28;20465;-57
2023/03/08 09:52:37;;;;;;;14.30;8.43;;;;;;;-0.07;100.00;99249.56;5030078;28;20445;-57
2023/03/08 09:55:04;;;;;;;14.37;8.63;;;;;;;-0.05;100.00;99246.84;5036813;28;20030;-57
2023/03/08 09:57:38;;;;;;;17.40;10.27;;;;;;;-0.01;100.00;99253.41;5031421;28;20072;-58
2023/03/08 10:00:08;;;;;;;16.03;10.43;;;;;;;0.09;100.00;99254.28;5034180;28;20407;-58
2023/03/08 10:03:06;;;;;;;22.10;11.67;;;;;;;0.13;100.00;99240.03;5030952;28;20055;-58
2023/03/08 10:05:40;;;;;;;20.03;13.03;;;;;;;0.19;100.00;99232.63;5029005;28;20045;-57
2023/03/08 10:08:11;;;;;;;19.83;13.27;;;;;;;0.31;100.00;99234.16;5029989;28;20112;-56
2023/03/08 10:10:59;;;;;;;20.57;14.30;;;;;;;0.31;100.00;99234.16;5025110;28;20034;-56
2023/03/08 10:13:30;;;;;;;21.10;14.27;;;;;;;0.38;100.00;99253.53;5034101;28;20575;-57
2023/03/08 10:16:03;;;;;;;22.57;14.60;;;;;;;0.42;100.00;99253.25;5034920;28;20042;-57
2023/03/08 10:18:36;;;;;;;22.93;15.23;;;;;;;0.43;100.00;99260.13;5034517;28;20369;-57
2023/03/08 10:21:02;;;;;;;20.38;14.27;;;;;;;0.47;100.00;99248.44;5026828;28;20539;-57
2023/03/08 10:23:32;;;;;;;22.07;15.17;;;;;;;0.37;100.00;99241.44;5031907;28;20091;-57
2023/03/08 10:25:59;;;;;;;21.33;15.57;;;;;;;0.36;100.00;99233.75;5027809;28;20037;-57
2023/03/08 10:28:26;;;;;;;24.00;16.20;;;;;;;0.38;100.00;99237.88;5025316;28;20036;-56
2023/03/08 10:30:57;;;;;;;24.00;16.37;;;;;;;0.38;100.00;99227.44;5026648;28;20032;-57
2023/03/08 10:33:23;;;;;;;23.33;15.77;;;;;;;0.48;100.00;99232.66;5021844;28;20040;-56
2023/03/08 10:36:22;;;;;;;23.47;16.13;;;;;;;0.60;100.00;99241.19;5031365;28;20056;-58
2023/03/08 10:39:06;;;;;;;23.40;16.57;;;;;;;0.62;100.00;99239.28;5012426;28;20045;-56
2023/03/08 10:41:39;;;;;;;25.63;16.97;;;;;;;0.62;100.00;99218.41;5020116;28;20476;-57
2023/03/08 10:44:05;;;;;;;;;;;;;;;0.72;100.00;99202.75;5026199;28;20100;-56
2023/03/08 10:46:31;;;;;;;26.00;17.57;;;;;;;0.62;100.00;99202.75;5024069;28;20001;-57
2023/03/08 10:49:16;;;;;;;25.57;18.13;;;;;;;0.62;100.00;99201.91;5034514;28;20048;-57
2023/03/08 10:51:56;;;;;;;28.80;19.70;;;;;;;0.58;100.00;99201.38;5021476;28;20045;-56
2023/03/08 10:54:22;;;;;;;27.77;19.20;;;;;;;0.55;100.00;99206.88;5032996;28;20706;-58
2023/03/08 10:56:59;;;;;;;29.17;20.10;;;;;;;0.49;100.00;99203.00;5033103;28;20072;-56
2023/03/08 10:59:35;;;;;;;27.70;18.90;;;;;;;0.47;100.00;99214.53;5042358;28;20037;-60
2023/03/08 11:02:15;;;;;;;26.53;19.80;;;;;;;0.44;100.00;99226.06;5024141;28;20108;-56
2023/03/08 11:04:57;;;;;;;29.00;20.40;;;;;;;0.39;100.00;99229.09;5030571;28;20037;-56
2023/03/08 11:07:26;;;;;;;26.15;17.95;;;;;;;0.35;100.00;99227.69;5049288;28;20078;-57
2023/03/08 11:10:11;;;;;;;25.83;18.87;;;;;;;0.28;100.00;99216.16;5034284;28;20032;-57
2023/03/08 11:12:38;;;;;;;27.07;18.97;;;;;;;0.33;100.00;99227.03;5033287;28;20040;-57
2023/03/08 11:15:21;;;;;;;28.13;19.30;;;;;;;0.34;100.00;99226.06;5051295;28;20051;-57
2023/03/08 11:18:11;;;;;;;26.57;19.53;;;;;;;0.29;100.00;99223.03;5037218;28;20124;-57